sensor_id;sensor_type;location;lat;lon;timestamp;pressure;altitude;pressure_sealevel;temperature;humidity
43071;BME280;36278;47.952;21.714;2023-10-08T00:01:53;100130.94;;;16.77;64.86
43071;BME280;36278;47.952;21.714;2023-10-08T00:04:21;100119.09;;;16.80;64.58
43071;BME280;36278;47.952;21.714;2023-10-08T00:06:46;100116.38;;;16.72;64.88
43071;BME280;36278;47.952;21.714;2023-10-08T00:09:12;100120.91;;;16.71;64.90
43071;BME280;36278;47.952;21.714;2023-10-08T00:11:41;100120.09;;;16.53;65.73
43071;BME280;36278;47.952;21.714;2023-10-08T00:14:08;100115.06;;;16.50;66.00
43071;BME280;36278;47.952;21.714;2023-10-08T00:16:42;100124.72;;;16.43;66.12
43071;BME280;36278;47.952;21.714;2023-10-08T00:19:08;100116.41;;;16.46;65.88
43071;BME280;36278;47.952;21.714;2023-10-08T00:21:35;100125.38;;;16.45;65.80
43071;BME280;36278;47.952;21.714;2023-10-08T00:24:04;100118.69;;;16.41;66.00
43071;BME280;36278;47.952;21.714;2023-10-08T00:26:32;100123.72;;;16.44;65.91
43071;BME280;36278;47.952;21.714;2023-10-08T00:28:59;100113.00;;;16.44;65.87
43071;BME280;36278;47.952;21.714;2023-10-08T00:31:25;100100.66;;;16.43;65.91
43071;BME280;36278;47.952;21.714;2023-10-08T00:33:56;100101.81;;;16.40;65.83
43071;BME280;36278;47.952;21.714;2023-10-08T00:36:22;100104.50;;;16.40;65.96
43071;BME280;36278;47.952;21.714;2023-10-08T00:38:50;100096.63;;;16.39;66.01
43071;BME280;36278;47.952;21.714;2023-10-08T00:41:24;100090.44;;;16.38;65.66
43071;BME280;36278;47.952;21.714;2023-10-08T00:43:54;100088.41;;;16.32;65.68
43071;BME280;36278;47.952;21.714;2023-10-08T00:46:25;100090.41;;;16.30;65.99
43071;BME280;36278;47.952;21.714;2023-10-08T00:48:56;100111.63;;;16.32;65.87
43071;BME280;36278;47.952;21.714;2023-10-08T00:51:23;100101.22;;;16.29;65.70
43071;BME280;36278;47.952;21.714;2023-10-08T00:53:59;100108.91;;;16.23;65.88
43071;BME280;36278;47.952;21.714;2023-10-08T00:56:31;100104.56;;;16.22;65.64
43071;BME280;36278;47.952;21.714;2023-10-08T00:59:16;100104.22;;;16.25;65.86
43071;BME280;36278;47.952;21.714;2023-10-08T01:01:48;100088.19;;;16.25;65.88
43071;BME280;36278;47.952;21.714;2023-10-08T01:04:18;100081.19;;;16.24;65.67
43071;BME280;36278;47.952;21.714;2023-10-08T01:06:47;100083.19;;;16.22;65.98
43071;BME280;36278;47.952;21.714;2023-10-08T01:09:14;100070.81;;;16.21;65.91
43071;BME280;36278;47.952;21.714;2023-10-08T01:11:44;100070.94;;;16.20;65.61
43071;BME280;36278;47.952;21.714;2023-10-08T01:14:16;100061.78;;;16.22;65.48
43071;BME280;36278;47.952;21.714;2023-10-08T01:16:46;100055.44;;;16.23;64.99
43071;BME280;36278;47.952;21.714;2023-10-08T01:19:18;100056.78;;;16.27;65.25
43071;BME280;36278;47.952;21.714;2023-10-08T01:21:45;100056.31;;;16.32;64.60
43071;BME280;36278;47.952;21.714;2023-10-08T01:24:10;100052.66;;;16.33;64.29
43071;BME280;36278;47.952;21.714;2023-10-08T01:26:41;100042.63;;;16.35;64.28
43071;BME280;36278;47.952;21.714;2023-10-08T01:29:10;100055.16;;;16.35;64.23
43071;BME280;36278;47.952;21.714;2023-10-08T01:31:44;100043.34;;;16.37;64.08
43071;BME280;36278;47.952;21.714;2023-10-08T01:34:10;100051.19;;;16.39;63.95
43071;BME280;36278;47.952;21.714;2023-10-08T01:36:41;100043.34;;;16.37;64.15
43071;BME280;36278;47.952;21.714;2023-10-08T01:39:09;100043.34;;;16.37;63.87
43071;BME280;36278;47.952;21.714;2023-10-08T01:41:43;100051.50;;;16.36;64.24
43071;BME280;36278;47.952;21.714;2023-10-08T01:44:08;100041.78;;;16.35;64.12
43071;BME280;36278;47.952;21.714;2023-10-08T01:46:34;100030.25;;;16.34;64.38
43071;BME280;36278;47.952;21.714;2023-10-08T01:49:00;100019.75;;;16.33;64.45
43071;BME280;36278;47.952;21.714;2023-10-08T01:51:30;100002.31;;;16.29;64.08
43071;BME280;36278;47.952;21.714;2023-10-08T01:54:04;99998.50;;;16.23;64.83
43071;BME280;36278;47.952;21.714;2023-10-08T01:56:43;100006.63;;;16.13;65.50
43071;BME280;36278;47.952;21.714;2023-10-08T01:59:13;100002.97;;;16.14;65.23
43071;BME280;36278;47.952;21.714;2023-10-08T02:01:43;100002.25;;;16.12;65.70
43071;BME280;36278;47.952;21.714;2023-10-08T02:04:10;99997.25;;;16.09;65.85
43071;BME280;36278;47.952;21.714;2023-10-08T02:06:37;99996.25;;;16.10;65.78
43071;BME280;36278;47.952;21.714;2023-10-08T02:09:05;99994.72;;;16.08;66.34
43071;BME280;36278;47.952;21.714;2023-10-08T02:11:46;100002.22;;;16.04;66.88
43071;BME280;36278;47.952;21.714;2023-10-08T02:14:15;99995.19;;;16.03;66.77
43071;BME280;36278;47.952;21.714;2023-10-08T02:16:43;100009.25;;;16.05;66.11
43071;BME280;36278;47.952;21.714;2023-10-08T02:19:09;100004.25;;;16.10;66.37
43071;BME280;36278;47.952;21.714;2023-10-08T02:21:37;99995.25;;;16.11;65.39
43071;BME280;36278;47.952;21.714;2023-10-08T02:24:06;99996.63;;;16.15;65.18
43071;BME280;36278;47.952;21.714;2023-10-08T02:26:32;99991.94;;;16.17;65.16
43071;BME280;36278;47.952;21.714;2023-10-08T02:29:00;99992.09;;;16.16;65.10
43071;BME280;36278;47.952;21.714;2023-10-08T02:31:26;99995.59;;;16.16;65.61
43071;BME280;36278;47.952;21.714;2023-10-08T02:33:53;99988.59;;;16.15;65.43
43071;BME280;36278;47.952;21.714;2023-10-08T02:36:19;99988.09;;;16.20;65.12
43071;BME280;36278;47.952;21.714;2023-10-08T02:38:45;99987.59;;;16.16;65.42
43071;BME280;36278;47.952;21.714;2023-10-08T02:41:17;99987.22;;;16.11;65.43
43071;BME280;36278;47.952;21.714;2023-10-08T02:43:43;99980.75;;;16.14;65.34
43071;BME280;36278;47.952;21.714;2023-10-08T02:46:10;99986.22;;;16.12;65.65
43071;BME280;36278;47.952;21.714;2023-10-08T02:48:39;99994.25;;;16.12;65.52
43071;BME280;36278;47.952;21.714;2023-10-08T02:51:05;99990.38;;;16.07;65.85
43071;BME280;36278;47.952;21.714;2023-10-08T02:53:39;99990.19;;;16.00;66.30
43071;BME280;36278;47.952;21.714;2023-10-08T02:56:08;99983.97;;;15.91;66.85
43071;BME280;36278;47.952;21.714;2023-10-08T02:58:39;99982.13;;;15.92;67.42
43071;BME280;36278;47.952;21.714;2023-10-08T03:01:05;99988.41;;;15.83;68.34
43071;BME280;36278;47.952;21.714;2023-10-08T03:03:30;99979.53;;;15.74;68.25
43071;BME280;36278;47.952;21.714;2023-10-08T03:05:58;99978.97;;;15.70;68.82
43071;BME280;36278;47.952;21.714;2023-10-08T03:08:23;99978.31;;;15.68;69.02
43071;BME280;36278;47.952;21.714;2023-10-08T03:10:51;99980.97;;;15.68;68.57
43071;BME280;36278;47.952;21.714;2023-10-08T03:13:24;99979.47;;;15.66;68.39
43071;BME280;36278;47.952;21.714;2023-10-08T03:15:51;99978.31;;;15.68;68.58
43071;BME280;36278;47.952;21.714;2023-10-08T03:18:27;99976.31;;;15.70;68.15
43071;BME280;36278;47.952;21.714;2023-10-08T03:21:04;99975.00;;;15.75;68.06
43071;BME280;36278;47.952;21.714;2023-10-08T03:23:31;99957.19;;;15.83;67.84
43071;BME280;36278;47.952;21.714;2023-10-08T03:26:02;99965.72;;;15.87;67.90
43071;BME280;36278;47.952;21.714;2023-10-08T03:28:36;99966.06;;;15.84;67.83
43071;BME280;36278;47.952;21.714;2023-10-08T03:31:03;99962.38;;;15.85;68.02
43071;BME280;36278;47.952;21.714;2023-10-08T03:33:39;99958.09;;;15.92;67.65
43071;BME280;36278;47.952;21.714;2023-10-08T03:36:06;99965.59;;;15.88;67.85
43071;BME280;36278;47.952;21.714;2023-10-08T03:38:55;99966.59;;;15.95;67.93
43071;BME280;36278;47.952;21.714;2023-10-08T03:41:23;99955.78;;;15.97;67.78
43071;BME280;36278;47.952;21.714;2023-10-08T03:43:57;99956.09;;;15.94;67.65
43071;BME280;36278;47.952;21.714;2023-10-08T03:46:38;99953.75;;;15.91;67.76
43071;BME280;36278;47.952;21.714;2023-10-08T03:49:06;99957.75;;;15.95;67.74
43071;BME280;36278;47.952;21.714;2023-10-08T03:51:39;99952.94;;;15.98;67.72
43071;BME280;36278;47.952;21.714;2023-10-08T03:54:06;99954.28;;;16.03;67.51
43071;BME280;36278;47.952;21.714;2023-10-08T03:56:35;99951.78;;;16.01;67.32
43071;BME280;36278;47.952;21.714;2023-10-08T03:59:04;99954.66;;;16.08;67.62
43071;BME280;36278;47.952;21.714;2023-10-08T04:01:44;99941.94;;;16.02;67.64
43071;BME280;36278;47.952;21.714;2023-10-08T04:04:09;99951.16;;;16.07;68.04
43071;BME280;36278;47.952;21.714;2023-10-08T04:06:43;99946.63;;;16.08;67.71
43071;BME280;36278;47.952;21.714;2023-10-08T04:09:17;99942.63;;;16.12;67.63
43071;BME280;36278;47.952;21.714;2023-10-08T04:11:46;99934.16;;;16.16;67.14
43071;BME280;36278;47.952;21.714;2023-10-08T04:14:24;99919.63;;;16.19;67.06
43071;BME280;36278;47.952;21.714;2023-10-08T04:16:53;99925.47;;;16.14;67.23
43071;BME280;36278;47.952;21.714;2023-10-08T04:19:20;99926.78;;;16.18;67.25
43071;BME280;36278;47.952;21.714;2023-10-08T04:21:47;99908.75;;;16.20;67.16
43071;BME280;36278;47.952;21.714;2023-10-08T04:24:21;99914.09;;;16.20;66.96
43071;BME280;36278;47.952;21.714;2023-10-08T04:26:53;99908.28;;;16.25;66.96
43071;BME280;36278;47.952;21.714;2023-10-08T04:29:22;99905.44;;;16.26;66.56
43071;BME280;36278;47.952;21.714;2023-10-08T04:31:49;99902.47;;;16.30;66.55
43071;BME280;36278;47.952;21.714;2023-10-08T04:34:26;99897.63;;;16.33;66.37
43071;BME280;36278;47.952;21.714;2023-10-08T04:36:53;99892.28;;;16.33;66.34
43071;BME280;36278;47.952;21.714;2023-10-08T04:39:23;99904.97;;;16.31;66.50
43071;BME280;36278;47.952;21.714;2023-10-08T04:42:00;99900.09;;;16.26;66.25
43071;BME280;36278;47.952;21.714;2023-10-08T04:44:33;99903.09;;;16.15;66.83
43071;BME280;36278;47.952;21.714;2023-10-08T04:46:59;99906.59;;;16.16;66.86
43071;BME280;36278;47.952;21.714;2023-10-08T04:49:30;99920.78;;;16.16;66.96
43071;BME280;36278;47.952;21.714;2023-10-08T04:52:01;99915.94;;;16.20;66.90
43071;BME280;36278;47.952;21.714;2023-10-08T04:54:30;99917.28;;;16.16;66.58
43071;BME280;36278;47.952;21.714;2023-10-08T04:57:00;99910.47;;;16.21;66.53
43071;BME280;36278;47.952;21.714;2023-10-08T04:59:29;99910.56;;;16.12;66.61
43071;BME280;36278;47.952;21.714;2023-10-08T05:02:04;99918.59;;;16.12;66.71
43071;BME280;36278;47.952;21.714;2023-10-08T05:04:47;99912.94;;;16.15;66.73
43071;BME280;36278;47.952;21.714;2023-10-08T05:07:17;99916.25;;;16.09;66.93
43071;BME280;36278;47.952;21.714;2023-10-08T05:09:46;99921.25;;;16.12;67.16
43071;BME280;36278;47.952;21.714;2023-10-08T05:12:37;99919.78;;;16.17;67.21
43071;BME280;36278;47.952;21.714;2023-10-08T05:15:11;99909.25;;;16.16;67.04
43071;BME280;36278;47.952;21.714;2023-10-08T05:17:40;99911.97;;;16.24;66.84
43071;BME280;36278;47.952;21.714;2023-10-08T05:20:22;99921.66;;;16.25;66.71
43071;BME280;36278;47.952;21.714;2023-10-08T05:23:24;99913.28;;;16.28;66.71
43071;BME280;36278;47.952;21.714;2023-10-08T05:25:52;99911.13;;;16.23;67.37
43071;BME280;36278;47.952;21.714;2023-10-08T05:28:35;99909.09;;;16.17;67.96
43071;BME280;36278;47.952;21.714;2023-10-08T05:31:08;99921.81;;;16.23;67.64
43071;BME280;36278;47.952;21.714;2023-10-08T05:33:59;99923.16;;;16.27;67.51
43071;BME280;36278;47.952;21.714;2023-10-08T05:36:43;99901.63;;;16.29;67.55
43071;BME280;36278;47.952;21.714;2023-10-08T05:39:27;99900.47;;;16.32;68.00
43071;BME280;36278;47.952;21.714;2023-10-08T05:42:09;99893.94;;;16.34;67.98
43071;BME280;36278;47.952;21.714;2023-10-08T05:44:57;99898.09;;;16.37;68.13
43071;BME280;36278;47.952;21.714;2023-10-08T05:47:31;99896.78;;;16.41;68.07
43071;BME280;36278;47.952;21.714;2023-10-08T05:49:57;99895.63;;;16.43;67.69
43071;BME280;36278;47.952;21.714;2023-10-08T05:52:41;99898.47;;;16.50;67.85
43071;BME280;36278;47.952;21.714;2023-10-08T05:55:17;99903.66;;;16.51;67.89
43071;BME280;36278;47.952;21.714;2023-10-08T05:57:53;99907.69;;;16.56;67.79
43071;BME280;36278;47.952;21.714;2023-10-08T06:00:28;99898.84;;;16.55;67.93
43071;BME280;36278;47.952;21.714;2023-10-08T06:02:57;99911.03;;;16.58;68.14
43071;BME280;36278;47.952;21.714;2023-10-08T06:05:35;99930.94;;;16.63;68.34
43071;BME280;36278;47.952;21.714;2023-10-08T06:08:08;99929.59;;;16.67;68.01
43071;BME280;36278;47.952;21.714;2023-10-08T06:10:38;99937.97;;;16.64;68.23
43071;BME280;36278;47.952;21.714;2023-10-08T06:13:08;99948.72;;;16.72;67.84
43071;BME280;36278;47.952;21.714;2023-10-08T06:15:43;99953.41;;;16.78;67.73
43071;BME280;36278;47.952;21.714;2023-10-08T06:18:31;99947.72;;;16.81;67.83
43071;BME280;36278;47.952;21.714;2023-10-08T06:21:02;99942.03;;;16.85;67.84
43071;BME280;36278;47.952;21.714;2023-10-08T06:23:35;99940.34;;;16.92;68.08
43071;BME280;36278;47.952;21.714;2023-10-08T06:26:02;99929.34;;;16.95;68.27
43071;BME280;36278;47.952;21.714;2023-10-08T06:28:43;99937.69;;;17.00;68.16
43071;BME280;36278;47.952;21.714;2023-10-08T06:31:10;99930.00;;;16.97;67.83
43071;BME280;36278;47.952;21.714;2023-10-08T06:33:43;99943.88;;;17.08;67.88
43071;BME280;36278;47.952;21.714;2023-10-08T06:36:10;99943.38;;;17.13;68.18
43071;BME280;36278;47.952;21.714;2023-10-08T06:38:47;99947.91;;;17.21;68.11
43071;BME280;36278;47.952;21.714;2023-10-08T06:41:16;99949.75;;;17.28;67.96
43071;BME280;36278;47.952;21.714;2023-10-08T06:43:48;99946.53;;;17.33;68.11
43071;BME280;36278;47.952;21.714;2023-10-08T06:46:17;99944.38;;;17.28;68.40
43071;BME280;36278;47.952;21.714;2023-10-08T06:48:48;99966.13;;;17.25;68.56
43071;BME280;36278;47.952;21.714;2023-10-08T06:51:15;99968.97;;;17.24;68.97
43071;BME280;36278;47.952;21.714;2023-10-08T06:53:44;99964.44;;;17.16;68.82
43071;BME280;36278;47.952;21.714;2023-10-08T06:56:11;99975.16;;;17.24;68.85
43071;BME280;36278;47.952;21.714;2023-10-08T06:58:38;99980.19;;;17.35;68.66
43071;BME280;36278;47.952;21.714;2023-10-08T07:01:04;99986.03;;;17.39;68.82
43071;BME280;36278;47.952;21.714;2023-10-08T07:03:30;99996.91;;;17.46;68.44
43071;BME280;36278;47.952;21.714;2023-10-08T07:05:57;99985.84;;;17.57;68.05
43071;BME280;36278;47.952;21.714;2023-10-08T07:08:43;99986.84;;;17.64;67.57
43071;BME280;36278;47.952;21.714;2023-10-08T07:11:12;99975.97;;;17.82;67.41
43071;BME280;36278;47.952;21.714;2023-10-08T07:13:39;99975.41;;;18.03;66.48
43071;BME280;36278;47.952;21.714;2023-10-08T07:16:07;99978.59;;;17.98;67.19
43071;BME280;36278;47.952;21.714;2023-10-08T07:18:37;99964.09;;;18.24;66.50
43071;BME280;36278;47.952;21.714;2023-10-08T07:21:03;99970.22;;;18.40;65.29
43071;BME280;36278;47.952;21.714;2023-10-08T07:23:30;99972.75;;;18.42;65.15
43071;BME280;36278;47.952;21.714;2023-10-08T07:26:03;99986.38;;;18.63;64.88
43071;BME280;36278;47.952;21.714;2023-10-08T07:31:20;100023.09;;;18.71;65.24
43071;BME280;36278;47.952;21.714;2023-10-08T07:33:48;100043.25;;;18.59;65.33
43071;BME280;36278;47.952;21.714;2023-10-08T07:36:21;100066.78;;;18.40;66.80
43071;BME280;36278;47.952;21.714;2023-10-08T07:38:46;100066.97;;;18.31;66.77
43071;BME280;36278;47.952;21.714;2023-10-08T07:41:12;100078.91;;;18.20;66.58
43071;BME280;36278;47.952;21.714;2023-10-08T07:43:41;100088.50;;;17.98;67.37
43071;BME280;36278;47.952;21.714;2023-10-08T07:46:11;100098.72;;;17.95;67.75
43071;BME280;36278;47.952;21.714;2023-10-08T07:48:40;100111.47;;;17.84;67.74
43071;BME280;36278;47.952;21.714;2023-10-08T07:51:09;100142.56;;;17.61;70.49
43071;BME280;36278;47.952;21.714;2023-10-08T07:53:34;100148.44;;;17.06;73.35
43071;BME280;36278;47.952;21.714;2023-10-08T07:56:05;100171.25;;;16.58;74.21
43071;BME280;36278;47.952;21.714;2023-10-08T07:58:35;100187.47;;;16.31;75.33
43071;BME280;36278;47.952;21.714;2023-10-08T08:01:06;100197.50;;;16.11;75.34
43071;BME280;36278;47.952;21.714;2023-10-08T08:03:33;100214.63;;;16.00;75.87
43071;BME280;36278;47.952;21.714;2023-10-08T08:06:00;100210.94;;;15.83;76.89
43071;BME280;36278;47.952;21.714;2023-10-08T08:08:26;100218.34;;;15.72;77.13
43071;BME280;36278;47.952;21.714;2023-10-08T08:10:53;100232.78;;;15.51;77.81
43071;BME280;36278;47.952;21.714;2023-10-08T08:13:23;100252.34;;;15.14;77.20
43071;BME280;36278;47.952;21.714;2023-10-08T08:15:54;100247.47;;;15.10;76.23
43071;BME280;36278;47.952;21.714;2023-10-08T08:18:25;100268.41;;;15.05;76.53
43071;BME280;36278;47.952;21.714;2023-10-08T08:20:56;100265.34;;;15.00;75.62
43071;BME280;36278;47.952;21.714;2023-10-08T08:23:29;100259.06;;;14.81;76.57
43071;BME280;36278;47.952;21.714;2023-10-08T08:25:54;100259.22;;;14.80;76.17
43071;BME280;36278;47.952;21.714;2023-10-08T08:28:32;100279.59;;;14.62;76.68
43071;BME280;36278;47.952;21.714;2023-10-08T08:31:03;100279.59;;;14.62;77.06
43071;BME280;36278;47.952;21.714;2023-10-08T08:33:31;100272.03;;;14.57;77.32
43071;BME280;36278;47.952;21.714;2023-10-08T08:36:17;100273.84;;;14.56;78.31
43071;BME280;36278;47.952;21.714;2023-10-08T08:38:42;100279.78;;;14.50;79.14
43071;BME280;36278;47.952;21.714;2023-10-08T08:41:08;100286.03;;;14.40;80.69
43071;BME280;36278;47.952;21.714;2023-10-08T08:43:38;100305.84;;;14.37;81.30
43071;BME280;36278;47.952;21.714;2023-10-08T08:46:10;100303.59;;;14.23;82.09
43071;BME280;36278;47.952;21.714;2023-10-08T08:48:42;100311.03;;;14.19;81.80
43071;BME280;36278;47.952;21.714;2023-10-08T08:51:10;100311.97;;;13.89;83.00
43071;BME280;36278;47.952;21.714;2023-10-08T08:53:36;100310.13;;;13.90;82.59
43071;BME280;36278;47.952;21.714;2023-10-08T08:56:02;100313.41;;;14.03;82.46
43071;BME280;36278;47.952;21.714;2023-10-08T08:58:33;100333.13;;;14.00;80.38
43071;BME280;36278;47.952;21.714;2023-10-08T09:00:59;100327.94;;;13.89;79.34
43071;BME280;36278;47.952;21.714;2023-10-08T09:03:26;100337.28;;;13.74;79.34
43071;BME280;36278;47.952;21.714;2023-10-08T09:05:57;100328.88;;;13.69;79.49
43071;BME280;36278;47.952;21.714;2023-10-08T09:08:36;100339.75;;;13.56;78.77
43071;BME280;36278;47.952;21.714;2023-10-08T09:11:02;100355.94;;;13.43;78.72
43071;BME280;36278;47.952;21.714;2023-10-08T09:13:34;100352.56;;;13.41;77.72
43071;BME280;36278;47.952;21.714;2023-10-08T09:16:15;100353.56;;;13.40;76.81
43071;BME280;36278;47.952;21.714;2023-10-08T09:18:43;100361.88;;;13.26;77.79
43071;BME280;36278;47.952;21.714;2023-10-08T09:21:11;100375.06;;;13.28;76.81
43071;BME280;36278;47.952;21.714;2023-10-08T09:23:42;100393.72;;;13.16;78.27
43071;BME280;36278;47.952;21.714;2023-10-08T09:26:09;100397.50;;;13.14;79.49
43071;BME280;36278;47.952;21.714;2023-10-08T09:28:34;100401.06;;;13.03;81.31
43071;BME280;36278;47.952;21.714;2023-10-08T09:31:03;100416.50;;;12.88;81.33
43071;BME280;36278;47.952;21.714;2023-10-08T09:33:30;100432.69;;;12.85;81.93
43071;BME280;36278;47.952;21.714;2023-10-08T09:35:58;100405.97;;;12.66;84.53
43071;BME280;36278;47.952;21.714;2023-10-08T09:38:28;100427.91;;;12.79;85.90
43071;BME280;36278;47.952;21.714;2023-10-08T09:40:55;100424.34;;;12.58;85.19
43071;BME280;36278;47.952;21.714;2023-10-08T09:43:23;100424.50;;;12.45;87.64
43071;BME280;36278;47.952;21.714;2023-10-08T09:46:24;100441.53;;;12.43;93.47
43071;BME280;36278;47.952;21.714;2023-10-08T09:48:50;100433.31;;;12.46;95.96
43071;BME280;36278;47.952;21.714;2023-10-08T09:51:18;100435.75;;;12.49;93.54
43071;BME280;36278;47.952;21.714;2023-10-08T09:53:52;100443.22;;;12.44;96.66
43071;BME280;36278;47.952;21.714;2023-10-08T09:56:24;100456.69;;;12.31;94.02
43071;BME280;36278;47.952;21.714;2023-10-08T09:58:51;100458.75;;;12.16;98.71
43071;BME280;36278;47.952;21.714;2023-10-08T10:01:18;100450.53;;;11.97;97.04
43071;BME280;36278;47.952;21.714;2023-10-08T10:03:45;100454.28;;;11.94;99.59
43071;BME280;36278;47.952;21.714;2023-10-08T10:06:13;100438.13;;;12.09;99.83
43071;BME280;36278;47.952;21.714;2023-10-08T10:08:41;100435.19;;;12.12;97.89
43071;BME280;36278;47.952;21.714;2023-10-08T10:11:07;100419.03;;;12.15;98.13
43071;BME280;36278;47.952;21.714;2023-10-08T10:13:38;100426.13;;;12.25;100.00
43071;BME280;36278;47.952;21.714;2023-10-08T10:16:05;100435.91;;;12.25;99.23
43071;BME280;36278;47.952;21.714;2023-10-08T10:18:33;100433.97;;;12.38;98.93
43071;BME280;36278;47.952;21.714;2023-10-08T10:23:42;100458.31;;;12.43;97.93
43071;BME280;36278;47.952;21.714;2023-10-08T10:26:24;100473.69;;;12.28;100.00
43071;BME280;36278;47.952;21.714;2023-10-08T10:31:38;100484.69;;;12.13;100.00
43071;BME280;36278;47.952;21.714;2023-10-08T10:34:06;100478.44;;;12.02;100.00
43071;BME280;36278;47.952;21.714;2023-10-08T10:36:34;100485.44;;;12.15;100.00
43071;BME280;36278;47.952;21.714;2023-10-08T10:39:00;100491.34;;;12.18;99.76
43071;BME280;36278;47.952;21.714;2023-10-08T10:41:25;100484.00;;;12.22;97.25
43071;BME280;36278;47.952;21.714;2023-10-08T10:43:53;100486.97;;;12.28;99.88
43071;BME280;36278;47.952;21.714;2023-10-08T10:46:18;100493.47;;;12.35;98.04
43071;BME280;36278;47.952;21.714;2023-10-08T10:48:56;100475.28;;;12.31;96.31
43071;BME280;36278;47.952;21.714;2023-10-08T10:51:33;100493.25;;;12.39;98.16
43071;BME280;36278;47.952;21.714;2023-10-08T10:53:59;100489.97;;;12.35;97.18
43071;BME280;36278;47.952;21.714;2023-10-08T10:56:36;100496.97;;;12.47;94.31
43071;BME280;36278;47.952;21.714;2023-10-08T10:59:08;100482.13;;;12.45;93.40
43071;BME280;36278;47.952;21.714;2023-10-08T11:01:52;100479.94;;;12.50;93.83
43071;BME280;36278;47.952;21.714;2023-10-08T11:04:19;100478.22;;;12.60;95.24
43071;BME280;36278;47.952;21.714;2023-10-08T11:06:54;100477.56;;;12.79;94.73
43071;BME280;36278;47.952;21.714;2023-10-08T11:09:27;100466.53;;;12.83;91.36
43071;BME280;36278;47.952;21.714;2023-10-08T11:12:04;100479.53;;;12.98;90.78
43071;BME280;36278;47.952;21.714;2023-10-08T11:14:38;100480.13;;;13.01;90.88
43071;BME280;36278;47.952;21.714;2023-10-08T11:17:15;100488.31;;;13.21;93.54
43071;BME280;36278;47.952;21.714;2023-10-08T11:19:44;100493.94;;;13.27;88.60
43071;BME280;36278;47.952;21.714;2023-10-08T11:22:12;100501.25;;;13.35;87.58
43071;BME280;36278;47.952;21.714;2023-10-08T11:24:48;100496.69;;;13.37;86.81
43071;BME280;36278;47.952;21.714;2023-10-08T11:27:18;100510.94;;;13.57;87.29
43071;BME280;36278;47.952;21.714;2023-10-08T11:29:55;100504.41;;;13.61;87.93
43071;BME280;36278;47.952;21.714;2023-10-08T11:32:26;100519.53;;;13.60;84.68
43071;BME280;36278;47.952;21.714;2023-10-08T11:34:59;100509.63;;;13.72;85.53
43071;BME280;36278;47.952;21.714;2023-10-08T11:37:32;100505.19;;;13.82;84.48
43071;BME280;36278;47.952;21.714;2023-10-08T11:40:01;100500.19;;;13.89;82.64
43071;BME280;36278;47.952;21.714;2023-10-08T11:42:35;100494.25;;;14.06;83.22
43071;BME280;36278;47.952;21.714;2023-10-08T11:45:00;100484.09;;;14.40;79.16
43071;BME280;36278;47.952;21.714;2023-10-08T11:47:47;100490.28;;;14.91;80.46
43071;BME280;36278;47.952;21.714;2023-10-08T11:50:23;100478.75;;;15.09;74.50
43071;BME280;36278;47.952;21.714;2023-10-08T11:53:05;100483.38;;;15.27;72.81
43071;BME280;36278;47.952;21.714;2023-10-08T11:55:35;100480.25;;;15.51;72.78
43071;BME280;36278;47.952;21.714;2023-10-08T11:58:04;100483.34;;;15.65;75.03
43071;BME280;36278;47.952;21.714;2023-10-08T12:00:40;100490.41;;;15.94;71.14
43071;BME280;36278;47.952;21.714;2023-10-08T12:03:18;100474.69;;;16.18;68.50
43071;BME280;36278;47.952;21.714;2023-10-08T12:05:44;100489.53;;;16.03;67.51
43071;BME280;36278;47.952;21.714;2023-10-08T12:08:14;100479.88;;;16.20;67.96
43071;BME280;36278;47.952;21.714;2023-10-08T12:10:42;100491.28;;;16.22;65.06
43071;BME280;36278;47.952;21.714;2023-10-08T12:13:08;100494.25;;;16.46;65.73
43071;BME280;36278;47.952;21.714;2023-10-08T12:15:36;100487.00;;;16.57;62.78
43071;BME280;36278;47.952;21.714;2023-10-08T12:18:07;100489.44;;;16.50;59.78
43071;BME280;36278;47.952;21.714;2023-10-08T12:21:02;100504.63;;;16.77;57.14
43071;BME280;36278;47.952;21.714;2023-10-08T12:23:27;100510.41;;;16.45;58.47
43071;BME280;36278;47.952;21.714;2023-10-08T12:25:55;100519.00;;;16.21;59.54
43071;BME280;36278;47.952;21.714;2023-10-08T12:28:25;100505.81;;;16.10;58.98
43071;BME280;36278;47.952;21.714;2023-10-08T12:30:51;100513.75;;;15.92;58.23
43071;BME280;36278;47.952;21.714;2023-10-08T12:33:22;100512.91;;;15.91;58.26
43071;BME280;36278;47.952;21.714;2023-10-08T12:35:52;100520.34;;;15.97;57.38
43071;BME280;36278;47.952;21.714;2023-10-08T12:38:21;100519.09;;;15.92;58.99
43071;BME280;36278;47.952;21.714;2023-10-08T12:40:51;100518.00;;;15.85;59.37
43071;BME280;36278;47.952;21.714;2023-10-08T12:43:23;100520.69;;;15.75;60.36
43071;BME280;36278;47.952;21.714;2023-10-08T12:45:53;100528.13;;;15.72;60.01
43071;BME280;36278;47.952;21.714;2023-10-08T12:48:22;100540.31;;;15.93;59.75
43071;BME280;36278;47.952;21.714;2023-10-08T12:50:48;100534.31;;;16.19;58.59
43071;BME280;36278;47.952;21.714;2023-10-08T12:53:24;100532.91;;;16.24;57.87
43071;BME280;36278;47.952;21.714;2023-10-08T12:55:56;100537.50;;;16.32;57.16
43071;BME280;36278;47.952;21.714;2023-10-08T12:58:23;100542.28;;;16.38;58.06
43071;BME280;36278;47.952;21.714;2023-10-08T13:00:55;100537.13;;;16.54;55.96
43071;BME280;36278;47.952;21.714;2023-10-08T13:03:26;100532.63;;;16.55;56.05
43071;BME280;36278;47.952;21.714;2023-10-08T13:05:56;100544.88;;;16.20;56.77
43071;BME280;36278;47.952;21.714;2023-10-08T13:08:32;100547.06;;;16.35;57.37
43071;BME280;36278;47.952;21.714;2023-10-08T13:11:00;100552.34;;;16.44;55.86